sensor_id;sensor_type;location;lat;lon;timestamp;temperature;humidity
60313;DHT22;46158;52.850;6.970;2023-09-19T00:00:22;19.70;90.20
60313;DHT22;46158;52.850;6.970;2023-09-19T00:02:54;19.80;90.40
60313;DHT22;46158;52.850;6.970;2023-09-19T00:05:20;19.80;90.30
60313;DHT22;46158;52.850;6.970;2023-09-19T00:07:50;19.80;90.30
60313;DHT22;46158;52.850;6.970;2023-09-19T00:10:16;19.70;90.30
60313;DHT22;46158;52.850;6.970;2023-09-19T00:12:45;19.70;90.30
60313;DHT22;46158;52.850;6.970;2023-09-19T00:15:11;19.70;90.30
60313;DHT22;46158;52.850;6.970;2023-09-19T00:17:37;19.70;90.30
60313;DHT22;46158;52.850;6.970;2023-09-19T00:20:04;19.70;90.30
60313;DHT22;46158;52.850;6.970;2023-09-19T00:22:33;19.70;90.30
60313;DHT22;46158;52.850;6.970;2023-09-19T00:24:59;19.70;90.30
60313;DHT22;46158;52.850;6.970;2023-09-19T00:27:25;19.70;90.30
60313;DHT22;46158;52.850;6.970;2023-09-19T00:29:51;19.70;90.30
60313;DHT22;46158;52.850;6.970;2023-09-19T00:32:18;19.70;90.30
60313;DHT22;46158;52.850;6.970;2023-09-19T00:34:44;19.70;90.30
60313;DHT22;46158;52.850;6.970;2023-09-19T00:37:09;19.70;90.30
60313;DHT22;46158;52.850;6.970;2023-09-19T00:39:36;19.70;90.30
60313;DHT22;46158;52.850;6.970;2023-09-19T00:42:02;19.70;90.30
60313;DHT22;46158;52.850;6.970;2023-09-19T00:44:30;19.70;90.30
60313;DHT22;46158;52.850;6.970;2023-09-19T00:46:56;19.70;90.30
60313;DHT22;46158;52.850;6.970;2023-09-19T00:49:22;19.60;90.50
60313;DHT22;46158;52.850;6.970;2023-09-19T00:51:48;19.70;90.20
60313;DHT22;46158;52.850;6.970;2023-09-19T00:54:15;19.60;90.20
60313;DHT22;46158;52.850;6.970;2023-09-19T00:56:45;19.60;90.20
60313;DHT22;46158;52.850;6.970;2023-09-19T00:59:11;19.60;90.20
60313;DHT22;46158;52.850;6.970;2023-09-19T01:01:37;19.60;90.20
60313;DHT22;46158;52.850;6.970;2023-09-19T01:04:06;19.60;90.20
60313;DHT22;46158;52.850;6.970;2023-09-19T01:06:31;19.60;90.20
60313;DHT22;46158;52.850;6.970;2023-09-19T01:08:57;19.60;90.20
60313;DHT22;46158;52.850;6.970;2023-09-19T01:11:37;19.60;90.20
60313;DHT22;46158;52.850;6.970;2023-09-19T01:16:52;19.60;90.20
60313;DHT22;46158;52.850;6.970;2023-09-19T01:27:25;19.50;90.30
60313;DHT22;46158;52.850;6.970;2023-09-19T01:30:16;19.50;90.20
60313;DHT22;46158;52.850;6.970;2023-09-19T01:32:42;19.60;90.20
60313;DHT22;46158;52.850;6.970;2023-09-19T01:35:09;19.50;90.20
60313;DHT22;46158;52.850;6.970;2023-09-19T01:37:38;19.50;90.20
60313;DHT22;46158;52.850;6.970;2023-09-19T01:40:05;19.50;90.20
60313;DHT22;46158;52.850;6.970;2023-09-19T01:42:54;19.50;90.40
60313;DHT22;46158;52.850;6.970;2023-09-19T01:45:51;19.50;90.30
60313;DHT22;46158;52.850;6.970;2023-09-19T01:48:46;19.50;90.20
60313;DHT22;46158;52.850;6.970;2023-09-19T01:51:28;19.50;90.20
60313;DHT22;46158;52.850;6.970;2023-09-19T01:54:10;19.50;90.20
60313;DHT22;46158;52.850;6.970;2023-09-19T01:56:52;19.50;90.30
60313;DHT22;46158;52.850;6.970;2023-09-19T01:59:26;19.50;90.20
60313;DHT22;46158;52.850;6.970;2023-09-19T02:01:54;19.50;90.20
60313;DHT22;46158;52.850;6.970;2023-09-19T02:04:20;19.50;90.30
60313;DHT22;46158;52.850;6.970;2023-09-19T02:06:46;19.50;90.20
60313;DHT22;46158;52.850;6.970;2023-09-19T02:09:15;19.40;90.20
60313;DHT22;46158;52.850;6.970;2023-09-19T02:11:40;19.50;90.20
60313;DHT22;46158;52.850;6.970;2023-09-19T02:14:08;19.50;90.20
60313;DHT22;46158;52.850;6.970;2023-09-19T02:16:34;19.40;90.30
60313;DHT22;46158;52.850;6.970;2023-09-19T02:19:00;19.40;90.20
60313;DHT22;46158;52.850;6.970;2023-09-19T02:21:26;19.40;90.20
60313;DHT22;46158;52.850;6.970;2023-09-19T02:23:55;19.40;90.20
60313;DHT22;46158;52.850;6.970;2023-09-19T02:26:21;19.40;90.20
60313;DHT22;46158;52.850;6.970;2023-09-19T02:28:50;19.40;90.20
60313;DHT22;46158;52.850;6.970;2023-09-19T02:31:16;19.40;90.20
60313;DHT22;46158;52.850;6.970;2023-09-19T02:33:42;19.40;90.20
60313;DHT22;46158;52.850;6.970;2023-09-19T02:36:09;19.40;90.20
60313;DHT22;46158;52.850;6.970;2023-09-19T02:38:35;19.40;90.20
60313;DHT22;46158;52.850;6.970;2023-09-19T02:41:01;19.40;90.20
60313;DHT22;46158;52.850;6.970;2023-09-19T02:43:27;19.30;90.20
60313;DHT22;46158;52.850;6.970;2023-09-19T02:45:53;19.40;90.20
60313;DHT22;46158;52.850;6.970;2023-09-19T02:48:19;19.40;90.20
60313;DHT22;46158;52.850;6.970;2023-09-19T02:50:44;19.40;90.20
60313;DHT22;46158;52.850;6.970;2023-09-19T02:53:10;19.40;90.20
60313;DHT22;46158;52.850;6.970;2023-09-19T02:55:38;19.30;90.20
60313;DHT22;46158;52.850;6.970;2023-09-19T02:58:06;19.30;90.20
60313;DHT22;46158;52.850;6.970;2023-09-19T03:00:33;19.30;90.20
60313;DHT22;46158;52.850;6.970;2023-09-19T03:03:01;19.30;90.20
60313;DHT22;46158;52.850;6.970;2023-09-19T03:05:27;19.30;90.20
60313;DHT22;46158;52.850;6.970;2023-09-19T03:07:56;19.30;90.20
60313;DHT22;46158;52.850;6.970;2023-09-19T03:10:22;19.30;90.20
60313;DHT22;46158;52.850;6.970;2023-09-19T03:12:48;19.30;90.20
60313;DHT22;46158;52.850;6.970;2023-09-19T03:15:15;19.30;90.20
60313;DHT22;46158;52.850;6.970;2023-09-19T03:17:48;19.30;90.20
60313;DHT22;46158;52.850;6.970;2023-09-19T03:20:14;19.30;90.10
60313;DHT22;46158;52.850;6.970;2023-09-19T03:22:45;19.30;90.20
60313;DHT22;46158;52.850;6.970;2023-09-19T03:25:11;19.30;90.10
60313;DHT22;46158;52.850;6.970;2023-09-19T03:27:39;19.30;90.10
60313;DHT22;46158;52.850;6.970;2023-09-19T03:30:05;19.30;90.10
60313;DHT22;46158;52.850;6.970;2023-09-19T03:32:35;19.30;90.10
60313;DHT22;46158;52.850;6.970;2023-09-19T03:35:01;19.20;90.10
60313;DHT22;46158;52.850;6.970;2023-09-19T03:37:27;19.20;90.10
60313;DHT22;46158;52.850;6.970;2023-09-19T03:39:53;19.20;90.10
60313;DHT22;46158;52.850;6.970;2023-09-19T03:42:18;19.20;90.10
60313;DHT22;46158;52.850;6.970;2023-09-19T03:44:51;19.20;90.10
60313;DHT22;46158;52.850;6.970;2023-09-19T03:47:17;19.20;90.10
60313;DHT22;46158;52.850;6.970;2023-09-19T03:49:44;19.20;90.10
60313;DHT22;46158;52.850;6.970;2023-09-19T03:52:10;19.20;90.10
60313;DHT22;46158;52.850;6.970;2023-09-19T03:54:35;19.20;90.10
60313;DHT22;46158;52.850;6.970;2023-09-19T03:57:01;19.20;90.10
60313;DHT22;46158;52.850;6.970;2023-09-19T03:59:29;19.20;90.10
60313;DHT22;46158;52.850;6.970;2023-09-19T04:01:55;19.20;90.10
60313;DHT22;46158;52.850;6.970;2023-09-19T04:04:22;19.20;90.10
60313;DHT22;46158;52.850;6.970;2023-09-19T04:06:53;19.20;90.10
60313;DHT22;46158;52.850;6.970;2023-09-19T04:09:18;19.20;90.10
60313;DHT22;46158;52.850;6.970;2023-09-19T04:11:44;19.20;90.10
60313;DHT22;46158;52.850;6.970;2023-09-19T04:14:10;19.20;90.10
60313;DHT22;46158;52.850;6.970;2023-09-19T04:16:35;19.10;90.10
60313;DHT22;46158;52.850;6.970;2023-09-19T04:19:01;19.10;90.10
60313;DHT22;46158;52.850;6.970;2023-09-19T04:21:28;19.10;90.10
60313;DHT22;46158;52.850;6.970;2023-09-19T04:23:54;19.10;90.10
60313;DHT22;46158;52.850;6.970;2023-09-19T04:26:20;19.10;90.10
60313;DHT22;46158;52.850;6.970;2023-09-19T04:28:47;19.10;90.10
60313;DHT22;46158;52.850;6.970;2023-09-19T04:31:12;19.10;90.10
60313;DHT22;46158;52.850;6.970;2023-09-19T04:33:39;19.10;90.10
60313;DHT22;46158;52.850;6.970;2023-09-19T04:36:05;19.10;90.10
60313;DHT22;46158;52.850;6.970;2023-09-19T04:38:33;19.10;90.10
60313;DHT22;46158;52.850;6.970;2023-09-19T04:40:59;19.10;90.10
60313;DHT22;46158;52.850;6.970;2023-09-19T04:43:26;19.10;90.00
60313;DHT22;46158;52.850;6.970;2023-09-19T04:45:51;19.10;90.00
60313;DHT22;46158;52.850;6.970;2023-09-19T04:48:22;19.10;90.00
60313;DHT22;46158;52.850;6.970;2023-09-19T04:50:49;19.00;90.00
60313;DHT22;46158;52.850;6.970;2023-09-19T04:53:17;19.00;90.30
60313;DHT22;46158;52.850;6.970;2023-09-19T04:55:43;19.10;90.00
60313;DHT22;46158;52.850;6.970;2023-09-19T04:58:09;19.00;90.00
60313;DHT22;46158;52.850;6.970;2023-09-19T05:00:35;19.00;90.00
60313;DHT22;46158;52.850;6.970;2023-09-19T05:03:01;19.00;90.00
60313;DHT22;46158;52.850;6.970;2023-09-19T05:05:26;19.00;90.00
60313;DHT22;46158;52.850;6.970;2023-09-19T05:07:52;19.00;90.00
60313;DHT22;46158;52.850;6.970;2023-09-19T05:10:20;19.00;90.00
60313;DHT22;46158;52.850;6.970;2023-09-19T05:12:45;19.00;90.00
60313;DHT22;46158;52.850;6.970;2023-09-19T05:15:14;19.00;90.00
60313;DHT22;46158;52.850;6.970;2023-09-19T05:17:40;19.00;90.00
60313;DHT22;46158;52.850;6.970;2023-09-19T05:20:06;19.00;90.00
60313;DHT22;46158;52.850;6.970;2023-09-19T05:22:56;19.00;90.00
60313;DHT22;46158;52.850;6.970;2023-09-19T05:25:22;19.00;90.00
60313;DHT22;46158;52.850;6.970;2023-09-19T05:27:49;19.00;90.00
60313;DHT22;46158;52.850;6.970;2023-09-19T05:30:18;19.00;90.00
60313;DHT22;46158;52.850;6.970;2023-09-19T05:32:45;19.00;90.00
60313;DHT22;46158;52.850;6.970;2023-09-19T05:35:11;19.00;90.00
60313;DHT22;46158;52.850;6.970;2023-09-19T05:37:38;19.00;90.00
60313;DHT22;46158;52.850;6.970;2023-09-19T05:40:04;19.00;90.00
60313;DHT22;46158;52.850;6.970;2023-09-19T05:42:34;19.00;90.00
60313;DHT22;46158;52.850;6.970;2023-09-19T05:45:00;18.90;90.00
60313;DHT22;46158;52.850;6.970;2023-09-19T05:47:26;18.90;90.00
60313;DHT22;46158;52.850;6.970;2023-09-19T05:49:51;18.90;89.90
60313;DHT22;46158;52.850;6.970;2023-09-19T05:52:17;18.90;89.90
60313;DHT22;46158;52.850;6.970;2023-09-19T05:54:43;18.90;89.90
60313;DHT22;46158;52.850;6.970;2023-09-19T05:57:09;18.90;89.90
60313;DHT22;46158;52.850;6.970;2023-09-19T05:59:37;18.90;89.90
60313;DHT22;46158;52.850;6.970;2023-09-19T06:02:05;18.90;89.90
60313;DHT22;46158;52.850;6.970;2023-09-19T06:04:31;18.90;89.90
60313;DHT22;46158;52.850;6.970;2023-09-19T06:06:57;18.90;89.90
60313;DHT22;46158;52.850;6.970;2023-09-19T06:09:23;18.90;89.90
60313;DHT22;46158;52.850;6.970;2023-09-19T06:11:49;18.90;89.90
60313;DHT22;46158;52.850;6.970;2023-09-19T06:14:15;18.90;89.80
60313;DHT22;46158;52.850;6.970;2023-09-19T06:16:43;18.90;89.80
60313;DHT22;46158;52.850;6.970;2023-09-19T06:19:08;18.80;89.70
60313;DHT22;46158;52.850;6.970;2023-09-19T06:21:35;18.80;89.70
60313;DHT22;46158;52.850;6.970;2023-09-19T06:24:02;18.90;89.80
60313;DHT22;46158;52.850;6.970;2023-09-19T06:26:28;18.80;89.70
60313;DHT22;46158;52.850;6.970;2023-09-19T06:28:54;18.80;89.70
60313;DHT22;46158;52.850;6.970;2023-09-19T06:31:21;18.80;89.70
60313;DHT22;46158;52.850;6.970;2023-09-19T06:33:48;18.90;89.70
60313;DHT22;46158;52.850;6.970;2023-09-19T06:36:14;18.90;89.70
60313;DHT22;46158;52.850;6.970;2023-09-19T06:38:40;18.80;89.60
60313;DHT22;46158;52.850;6.970;2023-09-19T06:41:06;18.80;89.60
60313;DHT22;46158;52.850;6.970;2023-09-19T06:43:34;18.80;90.10
60313;DHT22;46158;52.850;6.970;2023-09-19T06:46:00;18.80;89.60
60313;DHT22;46158;52.850;6.970;2023-09-19T06:48:26;18.80;89.50
60313;DHT22;46158;52.850;6.970;2023-09-19T06:50:58;18.80;89.40
60313;DHT22;46158;52.850;6.970;2023-09-19T06:53:27;18.90;89.30
60313;DHT22;46158;52.850;6.970;2023-09-19T06:55:52;18.80;89.30
60313;DHT22;46158;52.850;6.970;2023-09-19T06:58:18;18.80;89.00
60313;DHT22;46158;52.850;6.970;2023-09-19T07:00:45;18.80;88.60
60313;DHT22;46158;52.850;6.970;2023-09-19T07:03:13;18.80;87.00
60313;DHT22;46158;52.850;6.970;2023-09-19T07:05:39;18.80;86.20
60313;DHT22;46158;52.850;6.970;2023-09-19T07:08:06;18.70;85.60
60313;DHT22;46158;52.850;6.970;2023-09-19T07:10:33;18.70;85.10
60313;DHT22;46158;52.850;6.970;2023-09-19T07:13:05;18.70;85.00
60313;DHT22;46158;52.850;6.970;2023-09-19T07:15:34;18.60;84.80
60313;DHT22;46158;52.850;6.970;2023-09-19T07:18:07;18.60;84.50
60313;DHT22;46158;52.850;6.970;2023-09-19T07:20:36;18.60;84.30
60313;DHT22;46158;52.850;6.970;2023-09-19T07:23:02;18.60;84.40
60313;DHT22;46158;52.850;6.970;2023-09-19T07:25:28;18.60;84.20
60313;DHT22;46158;52.850;6.970;2023-09-19T07:27:58;18.60;84.20
60313;DHT22;46158;52.850;6.970;2023-09-19T07:30:25;18.50;84.30
60313;DHT22;46158;52.850;6.970;2023-09-19T07:32:52;18.50;84.40
60313;DHT22;46158;52.850;6.970;2023-09-19T07:35:18;18.50;84.60
60313;DHT22;46158;52.850;6.970;2023-09-19T07:37:48;18.50;84.60
60313;DHT22;46158;52.850;6.970;2023-09-19T07:40:17;18.50;84.50
60313;DHT22;46158;52.850;6.970;2023-09-19T07:42:43;18.50;84.40
60313;DHT22;46158;52.850;6.970;2023-09-19T07:45:10;18.50;84.30
60313;DHT22;46158;52.850;6.970;2023-09-19T07:47:49;18.50;84.20
60313;DHT22;46158;52.850;6.970;2023-09-19T07:50:18;18.50;84.20
60313;DHT22;46158;52.850;6.970;2023-09-19T07:52:45;18.50;84.30
60313;DHT22;46158;52.850;6.970;2023-09-19T07:55:11;18.50;84.20
60313;DHT22;46158;52.850;6.970;2023-09-19T07:57:41;18.50;84.10
60313;DHT22;46158;52.850;6.970;2023-09-19T08:00:08;18.50;84.00
60313;DHT22;46158;52.850;6.970;2023-09-19T08:02:36;18.50;84.00
60313;DHT22;46158;52.850;6.970;2023-09-19T08:05:04;18.40;83.80
60313;DHT22;46158;52.850;6.970;2023-09-19T08:07:39;18.40;83.80
60313;DHT22;46158;52.850;6.970;2023-09-19T08:10:06;18.40;83.90
60313;DHT22;46158;52.850;6.970;2023-09-19T08:12:39;18.40;83.90
60313;DHT22;46158;52.850;6.970;2023-09-19T08:15:12;18.40;83.90
60313;DHT22;46158;52.850;6.970;2023-09-19T08:17:38;18.40;84.00
60313;DHT22;46158;52.850;6.970;2023-09-19T08:20:04;18.40;83.90
60313;DHT22;46158;52.850;6.970;2023-09-19T08:22:31;18.40;84.00
60313;DHT22;46158;52.850;6.970;2023-09-19T08:24:57;18.40;84.00
60313;DHT22;46158;52.850;6.970;2023-09-19T08:27:24;18.40;84.00
60313;DHT22;46158;52.850;6.970;2023-09-19T08:29:52;18.40;84.10
60313;DHT22;46158;52.850;6.970;2023-09-19T08:32:19;18.40;84.20
60313;DHT22;46158;52.850;6.970;2023-09-19T08:34:49;18.40;84.20
60313;DHT22;46158;52.850;6.970;2023-09-19T08:37:15;18.40;84.20
60313;DHT22;46158;52.850;6.970;2023-09-19T08:39:42;18.40;84.30
60313;DHT22;46158;52.850;6.970;2023-09-19T08:42:08;18.50;84.50
60313;DHT22;46158;52.850;6.970;2023-09-19T08:44:37;18.40;84.50
60313;DHT22;46158;52.850;6.970;2023-09-19T08:47:14;18.50;84.70
60313;DHT22;46158;52.850;6.970;2023-09-19T08:50:01;18.50;84.80
60313;DHT22;46158;52.850;6.970;2023-09-19T08:52:49;18.50;84.90
60313;DHT22;46158;52.850;6.970;2023-09-19T08:55:17;18.50;85.00
60313;DHT22;46158;52.850;6.970;2023-09-19T08:57:48;18.50;85.10
60313;DHT22;46158;52.850;6.970;2023-09-19T09:00:15;18.50;85.20
60313;DHT22;46158;52.850;6.970;2023-09-19T09:02:44;18.50;85.40
60313;DHT22;46158;52.850;6.970;2023-09-19T09:05:10;18.50;85.30
60313;DHT22;46158;52.850;6.970;2023-09-19T09:07:37;18.50;85.30
60313;DHT22;46158;52.850;6.970;2023-09-19T09:10:04;18.50;85.30
60313;DHT22;46158;52.850;6.970;2023-09-19T09:12:30;18.50;85.40
60313;DHT22;46158;52.850;6.970;2023-09-19T09:14:56;18.50;85.40
60313;DHT22;46158;52.850;6.970;2023-09-19T09:17:23;18.50;85.40
60313;DHT22;46158;52.850;6.970;2023-09-19T09:19:52;18.60;85.50
60313;DHT22;46158;52.850;6.970;2023-09-19T09:22:18;18.60;85.50
60313;DHT22;46158;52.850;6.970;2023-09-19T09:24:59;18.50;85.50
60313;DHT22;46158;52.850;6.970;2023-09-19T09:27:29;18.60;85.50
60313;DHT22;46158;52.850;6.970;2023-09-19T09:29:55;18.60;85.60
60313;DHT22;46158;52.850;6.970;2023-09-19T09:34:54;18.60;85.70
60313;DHT22;46158;52.850;6.970;2023-09-19T09:37:21;18.60;85.70
60313;DHT22;46158;52.850;6.970;2023-09-19T09:39:58;18.60;85.80
60313;DHT22;46158;52.850;6.970;2023-09-19T09:42:36;18.60;85.80
60313;DHT22;46158;52.850;6.970;2023-09-19T09:45:24;18.60;85.90
60313;DHT22;46158;52.850;6.970;2023-09-19T09:47:58;18.60;85.80
60313;DHT22;46158;52.850;6.970;2023-09-19T09:50:31;18.60;86.00
60313;DHT22;46158;52.850;6.970;2023-09-19T09:53:22;18.60;86.10
60313;DHT22;46158;52.850;6.970;2023-09-19T09:58:22;18.60;86.20
60313;DHT22;46158;52.850;6.970;2023-09-19T10:00:57;18.60;86.30
60313;DHT22;46158;52.850;6.970;2023-09-19T10:03:38;18.60;86.30
60313;DHT22;46158;52.850;6.970;2023-09-19T10:06:10;18.60;86.20
60313;DHT22;46158;52.850;6.970;2023-09-19T10:09:05;18.70;86.40
60313;DHT22;46158;52.850;6.970;2023-09-19T10:11:42;18.60;86.30
60313;DHT22;46158;52.850;6.970;2023-09-19T10:14:13;18.70;86.50
60313;DHT22;46158;52.850;6.970;2023-09-19T10:16:49;18.70;86.50
60313;DHT22;46158;52.850;6.970;2023-09-19T10:19:21;18.70;86.40
60313;DHT22;46158;52.850;6.970;2023-09-19T10:21:50;18.70;86.50
60313;DHT22;46158;52.850;6.970;2023-09-19T10:24:17;18.70;86.60
60313;DHT22;46158;52.850;6.970;2023-09-19T10:26:45;18.70;86.50
60313;DHT22;46158;52.850;6.970;2023-09-19T10:29:13;18.70;86.30
60313;DHT22;46158;52.850;6.970;2023-09-19T10:31:42;18.70;86.10
60313;DHT22;46158;52.850;6.970;2023-09-19T10:34:14;18.70;86.00
60313;DHT22;46158;52.850;6.970;2023-09-19T10:36:44;18.70;85.70
60313;DHT22;46158;52.850;6.970;2023-09-19T10:39:13;18.70;85.60
60313;DHT22;46158;52.850;6.970;2023-09-19T10:41:40;18.70;85.40
60313;DHT22;46158;52.850;6.970;2023-09-19T10:44:06;18.70;85.40
60313;DHT22;46158;52.850;6.970;2023-09-19T10:46:32;18.70;85.20
60313;DHT22;46158;52.850;6.970;2023-09-19T10:49:02;18.70;85.40
60313;DHT22;46158;52.850;6.970;2023-09-19T10:51:39;18.70;85.40
60313;DHT22;46158;52.850;6.970;2023-09-19T10:54:12;18.70;86.30
60313;DHT22;46158;52.850;6.970;2023-09-19T10:56:43;18.70;85.70
60313;DHT22;46158;52.850;6.970;2023-09-19T10:59:17;18.70;85.80
60313;DHT22;46158;52.850;6.970;2023-09-19T11:01:53;18.70;85.80
60313;DHT22;46158;52.850;6.970;2023-09-19T11:04:32;18.70;85.90
60313;DHT22;46158;52.850;6.970;2023-09-19T11:07:06;18.70;85.80
60313;DHT22;46158;52.850;6.970;2023-09-19T11:09:44;18.70;85.90
60313;DHT22;46158;52.850;6.970;2023-09-19T11:12:12;18.70;86.00
60313;DHT22;46158;52.850;6.970;2023-09-19T11:14:39;18.70;86.00
60313;DHT22;46158;52.850;6.970;2023-09-19T11:30:49;18.70;86.00
60313;DHT22;46158;52.850;6.970;2023-09-19T11:33:19;18.70;86.00
60313;DHT22;46158;52.850;6.970;2023-09-19T11:43:51;18.70;86.00
60313;DHT22;46158;52.850;6.970;2023-09-19T11:46:18;18.70;86.10
60313;DHT22;46158;52.850;6.970;2023-09-19T11:48:50;18.70;86.00
60313;DHT22;46158;52.850;6.970;2023-09-19T11:51:21;18.70;86.00
60313;DHT22;46158;52.850;6.970;2023-09-19T11:53:57;18.80;86.10
60313;DHT22;46158;52.850;6.970;2023-09-19T11:56:26;18.80;86.10
60313;DHT22;46158;52.850;6.970;2023-09-19T11:58:57;18.80;86.10
60313;DHT22;46158;52.850;6.970;2023-09-19T12:01:27;18.80;86.10
60313;DHT22;46158;52.850;6.970;2023-09-19T12:03:56;18.80;86.10
60313;DHT22;46158;52.850;6.970;2023-09-19T12:06:23;18.80;86.10
60313;DHT22;46158;52.850;6.970;2023-09-19T12:08:49;18.80;86.10
60313;DHT22;46158;52.850;6.970;2023-09-19T12:11:17;18.80;86.10
60313;DHT22;46158;52.850;6.970;2023-09-19T12:13:44;18.80;86.10
60313;DHT22;46158;52.850;6.970;2023-09-19T12:16:17;18.80;86.10
60313;DHT22;46158;52.850;6.970;2023-09-19T12:18:46;18.80;86.10
60313;DHT22;46158;52.850;6.970;2023-09-19T12:26:30;18.80;86.10
60313;DHT22;46158;52.850;6.970;2023-09-19T12:28:59;18.80;86.10
60313;DHT22;46158;52.850;6.970;2023-09-19T12:31:27;18.80;86.10
60313;DHT22;46158;52.850;6.970;2023-09-19T12:33:55;18.80;86.10
60313;DHT22;46158;52.850;6.970;2023-09-19T12:36:22;18.80;86.10
60313;DHT22;46158;52.850;6.970;2023-09-19T12:38:54;18.80;86.10
60313;DHT22;46158;52.850;6.970;2023-09-19T12:41:20;18.80;86.10
60313;DHT22;46158;52.850;6.970;2023-09-19T12:43:47;18.80;86.10
60313;DHT22;46158;52.850;6.970;2023-09-19T12:46:13;18.90;86.10
60313;DHT22;46158;52.850;6.970;2023-09-19T12:48:40;18.80;86.10
60313;DHT22;46158;52.850;6.970;2023-09-19T12:51:12;18.80;86.10
60313;DHT22;46158;52.850;6.970;2023-09-19T12:53:39;18.80;85.90
60313;DHT22;46158;52.850;6.970;2023-09-19T12:56:10;18.80;85.90
60313;DHT22;46158;52.850;6.970;2023-09-19T12:58:52;18.80;85.90
60313;DHT22;46158;52.850;6.970;2023-09-19T13:01:22;18.90;85.90
60313;DHT22;46158;52.850;6.970;2023-09-19T13:04:21;18.90;85.90
60313;DHT22;46158;52.850;6.970;2023-09-19T13:06:54;18.90;85.70
60313;DHT22;46158;52.850;6.970;2023-09-19T13:09:22;18.80;85.70
60313;DHT22;46158;52.850;6.970;2023-09-19T13:11:50;18.90;85.50
60313;DHT22;46158;52.850;6.970;2023-09-19T13:14:26;18.90;85.40
60313;DHT22;46158;52.850;6.970;2023-09-19T13:17:06;18.90;85.30
60313;DHT22;46158;52.850;6.970;2023-09-19T13:19:51;18.90;85.30
60313;DHT22;46158;52.850;6.970;2023-09-19T13:22:39;18.90;85.10
60313;DHT22;46158;52.850;6.970;2023-09-19T13:25:09;18.90;85.00
60313;DHT22;46158;52.850;6.970;2023-09-19T13:27:50;18.90;85.00
60313;DHT22;46158;52.850;6.970;2023-09-19T13:30:22;18.90;84.80
60313;DHT22;46158;52.850;6.970;2023-09-19T13:32:47;18.90;84.90
60313;DHT22;46158;52.850;6.970;2023-09-19T13:35:14;18.90;85.00
60313;DHT22;46158;52.850;6.970;2023-09-19T13:37:41;18.90;85.00
60313;DHT22;46158;52.850;6.970;2023-09-19T13:40:14;18.90;85.10
60313;DHT22;46158;52.850;6.970;2023-09-19T13:42:41;18.90;85.00
60313;DHT22;46158;52.850;6.970;2023-09-19T13:45:07;18.90;85.10
60313;DHT22;46158;52.850;6.970;2023-09-19T13:47:34;18.90;85.20
60313;DHT22;46158;52.850;6.970;2023-09-19T13:50:04;18.90;85.20
60313;DHT22;46158;52.850;6.970;2023-09-19T13:52:31;18.90;85.80
60313;DHT22;46158;52.850;6.970;2023-09-19T13:54:57;18.90;85.00
60313;DHT22;46158;52.850;6.970;2023-09-19T13:57:24;18.90;84.90
60313;DHT22;46158;52.850;6.970;2023-09-19T13:59:49;18.90;84.80
60313;DHT22;46158;52.850;6.970;2023-09-19T14:02:15;18.90;84.80
60313;DHT22;46158;52.850;6.970;2023-09-19T14:04:44;18.90;84.70
60313;DHT22;46158;52.850;6.970;2023-09-19T14:07:09;18.90;84.70
60313;DHT22;46158;52.850;6.970;2023-09-19T14:09:36;18.90;84.70
60313;DHT22;46158;52.850;6.970;2023-09-19T14:12:02;18.90;84.50
60313;DHT22;46158;52.850;6.970;2023-09-19T14:14:28;18.80;84.50
60313;DHT22;46158;52.850;6.970;2023-09-19T14:16:53;18.90;84.50
60313;DHT22;46158;52.850;6.970;2023-09-19T14:19:20;18.90;84.40
60313;DHT22;46158;52.850;6.970;2023-09-19T14:21:46;18.90;84.50
60313;DHT22;46158;52.850;6.970;2023-09-19T14:24:18;18.90;84.40
60313;DHT22;46158;52.850;6.970;2023-09-19T14:26:45;18.90;84.20
60313;DHT22;46158;52.850;6.970;2023-09-19T14:29:11;18.90;84.10
60313;DHT22;46158;52.850;6.970;2023-09-19T14:31:40;18.90;84.00
60313;DHT22;46158;52.850;6.970;2023-09-19T14:34:06;18.90;83.90
60313;DHT22;46158;52.850;6.970;2023-09-19T14:36:35;18.90;83.80
60313;DHT22;46158;52.850;6.970;2023-09-19T14:39:00;18.90;83.80
60313;DHT22;46158;52.850;6.970;2023-09-19T14:41:26;18.90;83.70
60313;DHT22;46158;52.850;6.970;2023-09-19T14:43:52;18.90;83.60
60313;DHT22;46158;52.850;6.970;2023-09-19T14:46:18;18.90;83.60
60313;DHT22;46158;52.850;6.970;2023-09-19T14:48:44;18.90;83.50
60313;DHT22;46158;52.850;6.970;2023-09-19T14:51:12;18.90;83.40
60313;DHT22;46158;52.850;6.970;2023-09-19T14:53:41;18.80;83.30
60313;DHT22;46158;52.850;6.970;2023-09-19T14:56:08;18.90;83.30
60313;DHT22;46158;52.850;6.970;2023-09-19T14:58:35;18.90;83.20
60313;DHT22;46158;52.850;6.970;2023-09-19T15:01:11;18.90;83.20
60313;DHT22;46158;52.850;6.970;2023-09-19T15:03:37;18.90;83.10
60313;DHT22;46158;52.850;6.970;2023-09-19T15:06:06;18.90;83.10
60313;DHT22;46158;52.850;6.970;2023-09-19T15:08:37;18.90;83.00
60313;DHT22;46158;52.850;6.970;2023-09-19T15:11:09;18.90;82.90
60313;DHT22;46158;52.850;6.970;2023-09-19T15:13:36;18.90;83.00
60313;DHT22;46158;52.850;6.970;2023-09-19T15:16:03;18.90;83.30
60313;DHT22;46158;52.850;6.970;2023-09-19T15:18:29;18.90;83.10
60313;DHT22;46158;52.850;6.970;2023-09-19T15:21:05;18.90;83.20
60313;DHT22;46158;52.850;6.970;2023-09-19T15:23:32;18.90;83.30
60313;DHT22;46158;52.850;6.970;2023-09-19T15:26:06;18.90;83.30
60313;DHT22;46158;52.850;6.970;2023-09-19T15:28:32;18.90;83.40
60313;DHT22;46158;52.850;6.970;2023-09-19T15:31:03;18.90;83.40
60313;DHT22;46158;52.850;6.970;2023-09-19T15:33:30;18.90;83.30
60313;DHT22;46158;52.850;6.970;2023-09-19T15:36:06;18.90;83.30
60313;DHT22;46158;52.850;6.970;2023-09-19T15:41:42;18.90;83.10
60313;DHT22;46158;52.850;6.970;2023-09-19T15:44:18;18.90;83.20
60313;DHT22;46158;52.850;6.970;2023-09-19T15:46:44;18.90;83.20
60313;DHT22;46158;52.850;6.970;2023-09-19T15:49:10;18.90;83.10
60313;DHT22;46158;52.850;6.970;2023-09-19T15:51:37;18.90;83.00
60313;DHT22;46158;52.850;6.970;2023-09-19T15:54:13;18.90;83.00
60313;DHT22;46158;52.850;6.970;2023-09-19T15:56:44;18.90;82.90
60313;DHT22;46158;52.850;6.970;2023-09-19T15:59:09;18.90;83.00
60313;DHT22;46158;52.850;6.970;2023-09-19T16:01:38;18.90;82.80
60313;DHT22;46158;52.850;6.970;2023-09-19T16:04:04;18.90;82.80
60313;DHT22;46158;52.850;6.970;2023-09-19T16:06:30;18.90;82.80
60313;DHT22;46158;52.850;6.970;2023-09-19T16:08:58;18.90;82.70
60313;DHT22;46158;52.850;6.970;2023-09-19T16:11:25;18.90;82.70
60313;DHT22;46158;52.850;6.970;2023-09-19T16:13:51;18.90;82.70
60313;DHT22;46158;52.850;6.970;2023-09-19T16:16:19;18.90;82.60
60313;DHT22;46158;52.850;6.970;2023-09-19T16:18:52;18.90;82.70
60313;DHT22;46158;52.850;6.970;2023-09-19T16:21:18;18.90;82.70
60313;DHT22;46158;52.850;6.970;2023-09-19T16:23:48;18.90;82.80
60313;DHT22;46158;52.850;6.970;2023-09-19T16:26:15;18.90;82.80